createdAt,value
2018-02-17T00:00:36.370Z,13.87
2018-02-17T00:03:03.927Z,14.97
2018-02-17T00:05:31.454Z,17.07
2018-02-17T00:07:58.955Z,15.07
2018-02-17T00:10:26.474Z,16.73
2018-02-17T00:12:53.966Z,15.03
2018-02-17T00:15:21.594Z,14.50
2018-02-17T00:17:49.877Z,13.97
2018-02-17T00:20:17.376Z,16.57
2018-02-17T00:22:51.791Z,12.50
2018-02-17T00:25:19.309Z,15.13
2018-02-17T00:27:46.875Z,14.97
2018-02-17T00:30:15.130Z,16.47
2018-02-17T00:32:42.615Z,13.60
2018-02-17T00:35:10.121Z,14.73
2018-02-17T00:37:37.627Z,13.17
2018-02-17T00:40:05.157Z,13.47
2018-02-17T00:42:32.671Z,14.00
2018-02-17T00:45:00.942Z,15.87
2018-02-17T00:47:28.536Z,12.27
2018-02-17T00:49:56.064Z,12.93
2018-02-17T00:52:23.590Z,14.73
2018-02-17T00:54:51.133Z,15.13
2018-02-17T00:57:18.650Z,14.17
2018-02-17T00:59:46.158Z,15.57
2018-02-17T01:02:13.668Z,14.83
2018-02-17T01:04:41.175Z,16.03
2018-02-17T01:07:08.677Z,15.50
2018-02-17T01:09:36.218Z,16.00
2018-02-17T01:12:03.717Z,15.17
2018-02-17T01:14:31.980Z,15.90
2018-02-17T01:16:59.507Z,13.73
2018-02-17T01:19:27.023Z,15.40
2018-02-17T01:21:55.320Z,13.23
2018-02-17T01:24:22.806Z,13.63
2018-02-17T01:26:50.322Z,18.83
2018-02-17T01:29:17.863Z,16.47
2018-02-17T01:31:45.371Z,12.03
2018-02-17T01:34:12.878Z,18.33
2018-02-17T01:36:40.398Z,17.17
2018-02-17T01:39:08.669Z,16.60
2018-02-17T01:41:36.198Z,12.60
2018-02-17T01:44:03.737Z,16.60
2018-02-17T01:46:31.295Z,16.37
2018-02-17T01:48:58.803Z,15.23
2018-02-17T01:51:26.346Z,16.90
2018-02-17T01:53:54.607Z,13.10
2018-02-17T01:56:22.133Z,16.83
2018-02-17T01:58:49.625Z,13.93
2018-02-17T02:01:17.120Z,14.97
2018-02-17T02:03:45.404Z,16.73
2018-02-17T02:06:12.921Z,14.77
2018-02-17T02:08:40.423Z,17.27
2018-02-17T02:11:07.976Z,19.00
2018-02-17T02:13:36.250Z,15.33
2018-02-17T02:16:04.538Z,16.27
2018-02-17T02:18:32.027Z,18.00
2018-02-17T02:20:59.536Z,18.83
2018-02-17T02:23:27.835Z,16.67
2018-02-17T02:25:55.357Z,17.80
2018-02-17T02:28:23.017Z,13.70
2018-02-17T02:30:50.577Z,18.20
2018-02-17T02:33:18.123Z,15.67
2018-02-17T02:35:45.627Z,16.67
2018-02-17T02:38:13.130Z,14.27
2018-02-17T02:40:40.663Z,19.40
2018-02-17T02:43:08.176Z,17.90
2018-02-17T02:45:35.698Z,18.27
2018-02-17T02:48:03.970Z,15.40
2018-02-17T02:50:31.497Z,16.40
2018-02-17T02:52:59.020Z,19.70
2018-02-17T02:55:26.533Z,19.57
2018-02-17T02:57:54.080Z,20.93
2018-02-17T03:00:21.630Z,16.37
2018-02-17T03:02:49.214Z,16.87
2018-02-17T03:05:16.749Z,14.73
2018-02-17T03:07:44.241Z,14.60
2018-02-17T03:10:11.765Z,16.83
2018-02-17T03:12:39.267Z,18.37
2018-02-17T03:15:06.767Z,17.40
2018-02-17T03:17:34.295Z,20.63
2018-02-17T03:20:01.807Z,20.40
2018-02-17T03:22:29.304Z,16.97
2018-02-17T03:24:56.823Z,18.63
2018-02-17T03:27:24.322Z,20.83
2018-02-17T03:29:52.598Z,15.03
2018-02-17T03:32:20.144Z,15.90
2018-02-17T03:34:48.405Z,19.40
2018-02-17T03:37:15.926Z,20.40
2018-02-17T03:39:43.439Z,20.20
2018-02-17T03:42:11.721Z,18.13
2018-02-17T03:44:39.265Z,21.10
2018-02-17T03:47:06.781Z,15.90
2018-02-17T03:49:34.266Z,18.07
2018-02-17T03:52:01.767Z,17.13
2018-02-17T03:54:30.055Z,17.37
2018-02-17T03:56:57.563Z,18.07
2018-02-17T03:59:25.070Z,16.37
2018-02-17T04:01:52.616Z,17.77
2018-02-17T04:04:20.123Z,16.90
2018-02-17T04:06:47.652Z,17.07
2018-02-17T04:09:15.908Z,16.83
2018-02-17T04:11:43.418Z,15.83
2018-02-17T04:14:11.050Z,13.40
2018-02-17T04:16:38.554Z,12.53
2018-02-17T04:19:06.076Z,18.03
2018-02-17T04:21:33.607Z,18.67
2018-02-17T04:24:01.893Z,17.10
2018-02-17T04:26:29.429Z,15.90
2018-02-17T04:28:57.026Z,16.50
2018-02-17T04:31:24.533Z,16.13
2018-02-17T04:33:52.044Z,18.90
2018-02-17T04:36:19.530Z,14.03
2018-02-17T04:38:47.048Z,19.83
2018-02-17T04:41:17.790Z,18.10
2018-02-17T04:46:55.851Z,18.47
2018-02-17T04:49:35.192Z,15.53
2018-02-17T04:52:17.589Z,20.63
2018-02-17T04:54:50.802Z,15.47
2018-02-17T04:57:19.243Z,16.13
2018-02-17T05:00:04.425Z,18.53
2018-02-17T05:02:37.472Z,18.07
2018-02-17T05:05:19.855Z,15.53
2018-02-17T05:08:02.224Z,16.00
2018-02-17T05:10:29.760Z,15.33
2018-02-17T05:12:57.240Z,18.80
2018-02-17T05:15:24.723Z,19.73
2018-02-17T05:17:57.792Z,20.90
2018-02-17T05:20:35.244Z,17.23
2018-02-17T05:23:03.352Z,18.87
2018-02-17T05:25:49.690Z,17.63
2018-02-17T05:28:20.121Z,17.33
2018-02-17T05:30:48.385Z,22.63
2018-02-17T05:33:21.512Z,19.73
2018-02-17T05:35:50.570Z,14.30
2018-02-17T05:38:18.083Z,20.43
2018-02-17T05:40:54.235Z,25.20
2018-02-17T05:43:21.739Z,16.80
2018-02-17T05:45:53.176Z,17.00
2018-02-17T05:48:35.596Z,16.80
2018-02-17T05:51:03.086Z,18.50
2018-02-17T05:53:30.630Z,18.27
2018-02-17T05:55:58.140Z,15.53
2018-02-17T05:58:25.648Z,22.03
2018-02-17T06:00:53.152Z,15.50
2018-02-17T06:03:20.675Z,16.07
2018-02-17T06:05:48.185Z,17.57
2018-02-17T06:08:15.693Z,16.23
2018-02-17T06:10:43.213Z,13.87
2018-02-17T06:13:11.482Z,17.63
2018-02-17T06:15:38.975Z,16.30
2018-02-17T06:18:06.467Z,18.03
2018-02-17T06:20:33.989Z,17.23
2018-02-17T06:23:01.497Z,14.40
2018-02-17T06:25:29.017Z,16.17
2018-02-17T06:27:56.590Z,15.30
2018-02-17T06:30:24.342Z,15.17
2018-02-17T06:32:51.838Z,14.83
2018-02-17T06:35:19.320Z,14.63
2018-02-17T06:37:46.831Z,19.23
2018-02-17T06:40:14.328Z,14.60
2018-02-17T06:42:41.843Z,16.27
2018-02-17T06:45:09.347Z,12.77
2018-02-17T06:47:36.845Z,14.07
2018-02-17T06:50:04.341Z,15.63
2018-02-17T06:52:31.845Z,16.03
2018-02-17T06:55:00.137Z,19.17
2018-02-17T06:57:27.628Z,14.10
2018-02-17T06:59:55.113Z,16.83
2018-02-17T07:02:22.616Z,16.97
2018-02-17T07:04:51.236Z,16.87
2018-02-17T07:07:18.762Z,17.40
2018-02-17T07:09:46.276Z,15.73
2018-02-17T07:12:13.778Z,15.20
2018-02-17T07:14:41.271Z,18.03
2018-02-17T07:17:08.788Z,11.27
2018-02-17T07:19:36.290Z,14.53
2018-02-17T07:22:03.778Z,17.17
2018-02-17T07:24:31.300Z,14.50
2018-02-17T07:26:59.617Z,17.03
2018-02-17T07:29:27.156Z,19.27
2018-02-17T07:31:54.676Z,16.57
2018-02-17T07:34:22.261Z,14.53
2018-02-17T07:36:49.747Z,19.17
2018-02-17T07:39:17.262Z,14.93
2018-02-17T07:41:44.800Z,16.10
2018-02-17T07:44:12.292Z,19.30
2018-02-17T07:46:39.774Z,17.57
2018-02-17T07:49:07.295Z,17.13
2018-02-17T07:51:34.859Z,15.13
2018-02-17T07:54:02.312Z,17.80
2018-02-17T07:56:30.594Z,17.53
2018-02-17T07:58:58.078Z,14.97
2018-02-17T08:01:25.597Z,19.67
2018-02-17T08:03:53.866Z,17.03
2018-02-17T08:06:21.352Z,22.67
2018-02-17T08:08:48.934Z,16.43
2018-02-17T08:11:16.427Z,14.83
2018-02-17T08:13:43.929Z,17.60
2018-02-17T08:16:12.199Z,17.07
2018-02-17T08:18:40.455Z,20.30
2018-02-17T08:21:07.951Z,17.47
2018-02-17T08:23:35.453Z,18.47
2018-02-17T08:26:03.010Z,17.83
2018-02-17T08:28:30.538Z,19.10
2018-02-17T08:30:58.056Z,17.23
2018-02-17T08:33:25.596Z,17.87
2018-02-17T08:35:53.126Z,18.97
2018-02-17T08:38:20.651Z,19.70
2018-02-17T08:40:48.203Z,22.07
2018-02-17T08:43:15.698Z,18.70
2018-02-17T08:45:43.197Z,17.07
2018-02-17T08:48:10.714Z,20.23
2018-02-17T08:50:38.332Z,18.93
2018-02-17T08:53:06.056Z,22.17
2018-02-17T08:55:33.572Z,18.47
2018-02-17T08:58:01.173Z,20.30
2018-02-17T09:00:28.654Z,17.63
2018-02-17T09:02:56.162Z,18.77
2018-02-17T09:05:24.427Z,19.03
2018-02-17T09:07:54.181Z,19.77
2018-02-17T09:10:33.546Z,17.20
2018-02-17T09:13:01.130Z,22.13
2018-02-17T09:15:28.694Z,22.30
2018-02-17T09:17:56.243Z,19.87
2018-02-17T09:20:23.773Z,23.40
2018-02-17T09:22:51.270Z,20.33
2018-02-17T09:25:18.796Z,19.97
2018-02-17T09:27:46.293Z,22.87
2018-02-17T09:30:13.808Z,18.87
2018-02-17T09:32:41.332Z,20.00
2018-02-17T09:35:09.598Z,21.20
2018-02-17T09:37:37.116Z,25.77
2018-02-17T09:40:04.600Z,25.10
2018-02-17T09:42:32.104Z,19.97
2018-02-17T09:45:00.927Z,22.67
2018-02-17T09:47:28.441Z,25.90
2018-02-17T09:49:56.690Z,22.60
2018-02-17T09:52:24.192Z,24.97
2018-02-17T09:54:51.884Z,21.70
2018-02-17T09:57:19.375Z,18.03
2018-02-17T09:59:47.088Z,22.03
2018-02-17T10:02:14.646Z,22.87
2018-02-17T10:04:42.154Z,25.20
2018-02-17T10:07:09.682Z,25.17
2018-02-17T10:09:37.191Z,26.67
2018-02-17T10:12:04.782Z,23.43
2018-02-17T10:14:32.451Z,25.80
2018-02-17T10:16:59.960Z,23.90
2018-02-17T10:19:27.618Z,24.47
2018-02-17T10:21:55.108Z,24.83
2018-02-17T10:24:22.713Z,20.23
2018-02-17T10:26:50.205Z,25.53
2018-02-17T10:29:17.715Z,26.90
2018-02-17T10:31:45.272Z,21.73
2018-02-17T10:34:12.769Z,21.83
2018-02-17T10:36:40.277Z,21.47
2018-02-17T10:39:07.837Z,27.60
2018-02-17T10:41:35.368Z,22.50
2018-02-17T10:44:02.852Z,21.60
2018-02-17T10:46:31.132Z,22.07
2018-02-17T10:48:59.388Z,23.53
2018-02-17T10:51:26.893Z,21.60
2018-02-17T10:53:54.394Z,22.33
2018-02-17T10:56:21.910Z,21.30
2018-02-17T10:58:49.425Z,19.57
2018-02-17T11:01:16.976Z,24.27
2018-02-17T11:03:44.528Z,20.07
2018-02-17T11:06:12.036Z,21.77
2018-02-17T11:08:39.544Z,21.40
2018-02-17T11:11:07.805Z,18.17
2018-02-17T11:13:35.330Z,15.87
2018-02-17T11:16:02.822Z,19.80
2018-02-17T11:18:30.351Z,19.10
2018-02-17T11:20:57.843Z,17.97
2018-02-17T11:23:25.355Z,20.47
2018-02-17T11:25:52.860Z,23.50
2018-02-17T11:28:20.392Z,19.57
2018-02-17T11:30:48.001Z,20.07
2018-02-17T11:33:15.533Z,20.00
2018-02-17T11:35:43.029Z,25.07
2018-02-17T11:38:10.525Z,20.30
2018-02-17T11:40:38.799Z,23.60
2018-02-17T11:43:06.289Z,23.60
2018-02-17T11:45:34.569Z,18.40
2018-02-17T11:48:02.068Z,24.80
2018-02-17T11:50:29.573Z,22.43
2018-02-17T11:52:57.068Z,20.73
2018-02-17T11:55:24.554Z,20.07
2018-02-17T11:57:52.070Z,21.57
2018-02-17T12:00:19.588Z,23.30
2018-02-17T12:02:47.075Z,21.73
2018-02-17T12:05:14.593Z,23.43
2018-02-17T12:07:42.080Z,23.13
2018-02-17T12:10:09.589Z,21.00
2018-02-17T12:12:37.111Z,20.33
2018-02-17T12:15:05.429Z,23.00
2018-02-17T12:17:32.941Z,22.90
2018-02-17T12:20:01.289Z,22.93
2018-02-17T12:22:28.776Z,21.07
2018-02-17T12:24:57.047Z,18.60
2018-02-17T12:27:24.590Z,20.93
2018-02-17T12:29:52.080Z,19.00
2018-02-17T12:32:20.332Z,20.53
2018-02-17T12:34:47.854Z,23.13
2018-02-17T12:37:15.431Z,21.93
2018-02-17T12:39:42.944Z,20.43
2018-02-17T12:42:11.194Z,22.30
2018-02-17T12:44:38.690Z,23.17
2018-02-17T12:47:06.960Z,20.03
2018-02-17T12:49:34.476Z,18.97
2018-02-17T12:52:01.982Z,18.63
2018-02-17T12:54:30.233Z,20.40
2018-02-17T12:56:57.710Z,18.37
2018-02-17T12:59:25.300Z,22.77
2018-02-17T13:01:52.789Z,22.73
2018-02-17T13:04:20.279Z,18.73
2018-02-17T13:06:48.555Z,20.20
2018-02-17T13:09:16.102Z,20.23
2018-02-17T13:11:43.595Z,23.40
2018-02-17T13:14:11.895Z,22.93
2018-02-17T13:16:39.420Z,18.60
2018-02-17T13:19:07.692Z,16.83
2018-02-17T13:21:35.953Z,22.77
2018-02-17T13:24:03.441Z,22.77
2018-02-17T13:26:31.080Z,20.27
2018-02-17T13:28:58.579Z,23.00
2018-02-17T13:31:26.068Z,18.47
2018-02-17T13:33:53.577Z,21.87
2018-02-17T13:36:21.094Z,22.67
2018-02-17T13:38:48.603Z,23.23
2018-02-17T13:41:16.903Z,21.63
2018-02-17T13:43:44.451Z,23.07
2018-02-17T13:46:12.733Z,22.13
2018-02-17T13:48:40.230Z,22.80
2018-02-17T13:51:07.732Z,18.67
2018-02-17T13:53:36.006Z,20.03
2018-02-17T13:56:03.504Z,19.93
2018-02-17T13:58:31.044Z,15.57
2018-02-17T14:00:59.311Z,20.13
2018-02-17T14:03:26.804Z,18.83
2018-02-17T14:05:54.295Z,18.97
2018-02-17T14:08:21.803Z,19.00
2018-02-17T14:10:50.060Z,21.97
2018-02-17T14:13:17.598Z,19.63
2018-02-17T14:15:45.174Z,22.20
2018-02-17T14:18:12.627Z,21.37
2018-02-17T14:20:40.930Z,19.63
2018-02-17T14:23:09.208Z,23.07
2018-02-17T14:25:36.697Z,16.63
2018-02-17T14:28:04.224Z,16.50
2018-02-17T14:30:32.494Z,23.77
2018-02-17T14:33:00.185Z,18.67
2018-02-17T14:35:27.783Z,18.93
2018-02-17T14:37:55.320Z,15.53
2018-02-17T14:40:22.808Z,24.03
2018-02-17T14:42:50.318Z,18.13
2018-02-17T14:45:18.577Z,25.00
2018-02-17T14:47:46.863Z,19.23
2018-02-17T14:50:14.354Z,22.87
2018-02-17T14:52:41.854Z,19.93
2018-02-17T14:55:09.359Z,18.03
2018-02-17T14:57:36.845Z,18.43
2018-02-17T15:00:04.363Z,18.13
2018-02-17T15:02:32.637Z,20.63
2018-02-17T15:05:00.901Z,20.97
2018-02-17T15:07:28.408Z,17.50
2018-02-17T15:09:55.942Z,19.93
2018-02-17T15:12:23.409Z,19.87
2018-02-17T15:14:51.683Z,13.87
2018-02-17T15:17:19.172Z,18.43
2018-02-17T15:19:46.667Z,21.30
2018-02-17T15:22:14.215Z,19.30
2018-02-17T15:24:41.707Z,20.43
2018-02-17T15:27:09.212Z,20.50
2018-02-17T15:29:36.724Z,20.03
2018-02-17T15:32:04.221Z,18.10
2018-02-17T15:34:31.715Z,20.10
2018-02-17T15:36:59.227Z,20.53
2018-02-17T15:39:26.723Z,25.23
2018-02-17T15:41:54.277Z,20.67
2018-02-17T15:44:21.800Z,22.10
2018-02-17T15:46:49.285Z,22.50
2018-02-17T15:49:16.785Z,20.80
2018-02-17T15:51:44.275Z,18.43
2018-02-17T15:54:12.609Z,17.20
2018-02-17T15:56:40.108Z,18.50
2018-02-17T15:59:08.385Z,19.67
2018-02-17T16:01:35.874Z,23.60
2018-02-17T16:04:03.361Z,23.57
2018-02-17T16:06:30.880Z,20.57
2018-02-17T16:08:58.388Z,22.93
2018-02-17T16:11:25.898Z,20.87
2018-02-17T16:13:53.390Z,19.57
2018-02-17T16:16:20.876Z,25.13
2018-02-17T16:18:48.382Z,19.47
2018-02-17T16:21:21.345Z,22.20
2018-02-17T16:23:48.860Z,18.67
2018-02-17T16:26:16.364Z,23.03
2018-02-17T16:28:45.186Z,20.27
2018-02-17T16:31:12.710Z,19.93
2018-02-17T16:33:40.202Z,21.43
2018-02-17T16:36:07.690Z,19.50
2018-02-17T16:38:35.240Z,20.47
2018-02-17T16:41:03.479Z,23.77
2018-02-17T16:43:30.975Z,24.33
2018-02-17T16:45:58.460Z,20.77
2018-02-17T16:48:25.967Z,25.00
2018-02-17T16:50:54.223Z,22.83
2018-02-17T16:53:21.763Z,24.23
2018-02-17T16:55:49.255Z,22.20
2018-02-17T16:58:17.523Z,21.97
2018-02-17T17:00:45.029Z,22.03
2018-02-17T17:03:12.563Z,22.20
2018-02-17T17:05:40.824Z,20.00
2018-02-17T17:08:08.328Z,21.87
2018-02-17T17:10:35.836Z,22.00
2018-02-17T17:13:03.348Z,25.63
2018-02-17T17:15:30.841Z,20.63
2018-02-17T17:17:58.359Z,23.30
2018-02-17T17:20:25.847Z,26.43
2018-02-17T17:22:53.341Z,22.73
2018-02-17T17:27:54.858Z,28.63
2018-02-17T17:30:22.351Z,29.37
2018-02-17T17:32:55.651Z,25.13
2018-02-17T17:35:23.585Z,27.60
2018-02-17T17:37:51.125Z,25.83
2018-02-17T17:40:18.852Z,27.37
2018-02-17T17:42:51.956Z,24.47
2018-02-17T17:45:20.538Z,29.23
2018-02-17T17:47:48.819Z,26.20
2018-02-17T17:50:16.347Z,25.93
2018-02-17T17:52:43.855Z,25.97
2018-02-17T17:55:11.354Z,25.00
2018-02-17T17:57:38.857Z,27.80
2018-02-17T18:00:06.483Z,30.60
2018-02-17T18:02:33.978Z,29.47
2018-02-17T18:05:02.266Z,27.50
2018-02-17T18:07:29.752Z,27.80
2018-02-17T18:09:57.248Z,27.87
2018-02-17T18:12:24.738Z,30.57
2018-02-17T18:14:53.052Z,28.57
2018-02-17T18:17:20.560Z,29.87
2018-02-17T18:19:48.070Z,28.43
2018-02-17T18:22:15.632Z,27.57
2018-02-17T18:24:43.139Z,25.23
2018-02-17T18:27:10.634Z,27.07
2018-02-17T18:29:38.139Z,30.57
2018-02-17T18:32:05.652Z,28.90
2018-02-17T18:34:33.212Z,28.33
2018-02-17T18:37:00.744Z,32.47
2018-02-17T18:39:28.328Z,27.13
2018-02-17T18:41:57.088Z,28.43
2018-02-17T18:44:25.494Z,30.80
2018-02-17T18:46:53.745Z,32.37
2018-02-17T18:49:21.236Z,29.53
2018-02-17T18:51:49.517Z,27.80
2018-02-17T18:54:17.028Z,30.47
2018-02-17T18:56:44.526Z,35.73
2018-02-17T18:59:12.796Z,30.57
2018-02-17T19:01:40.290Z,35.87
2018-02-17T19:04:07.797Z,31.30
2018-02-17T19:06:35.305Z,33.30
2018-02-17T19:09:02.834Z,28.97
2018-02-17T19:11:30.427Z,32.35
2018-02-17T19:13:57.934Z,27.90
2018-02-17T19:16:25.600Z,31.13
2018-02-17T19:18:53.147Z,25.77
2018-02-17T19:21:20.666Z,27.70
2018-02-17T19:23:48.177Z,32.57
2018-02-17T19:26:15.712Z,30.47
2018-02-17T19:28:43.235Z,29.07
2018-02-17T19:31:10.769Z,28.07
2018-02-17T19:33:38.263Z,28.20
2018-02-17T19:36:06.618Z,30.93
2018-02-17T19:38:34.903Z,24.13
2018-02-17T19:41:02.463Z,30.93
2018-02-17T19:43:30.751Z,28.17
2018-02-17T19:45:58.287Z,29.50
2018-02-17T19:48:25.778Z,30.90
2018-02-17T19:50:53.299Z,28.97
2018-02-17T19:53:20.985Z,31.73
2018-02-17T19:55:49.285Z,35.27
2018-02-17T19:58:16.792Z,30.93
2018-02-17T20:00:44.470Z,32.77
2018-02-17T20:03:13.492Z,28.07
2018-02-17T20:05:40.993Z,30.50
2018-02-17T20:08:08.549Z,36.17
2018-02-17T20:10:36.095Z,30.77
2018-02-17T20:13:03.663Z,31.20
2018-02-17T20:15:31.177Z,35.27
2018-02-17T20:17:59.477Z,30.03
2018-02-17T20:20:27.759Z,31.43
2018-02-17T20:22:55.269Z,32.10
2018-02-17T20:25:22.817Z,36.50
2018-02-17T20:27:50.330Z,27.80
2018-02-17T20:30:18.638Z,31.37
2018-02-17T20:32:46.156Z,30.90
2018-02-17T20:35:14.456Z,31.10
2018-02-17T20:37:41.952Z,32.40
2018-02-17T20:40:09.449Z,34.23
2018-02-17T20:42:36.961Z,32.47
2018-02-17T20:45:04.469Z,33.30
2018-02-17T20:47:32.791Z,29.83
2018-02-17T20:50:00.360Z,36.23
2018-02-17T20:52:27.862Z,35.37
2018-02-17T20:54:55.380Z,38.53
2018-02-17T20:57:23.164Z,39.67
2018-02-17T20:59:50.640Z,40.67
2018-02-17T21:02:18.202Z,40.10
2018-02-17T21:04:45.684Z,44.47
2018-02-17T21:07:13.946Z,44.80
2018-02-17T21:09:41.455Z,44.37
2018-02-17T21:12:09.017Z,42.60
2018-02-17T21:14:36.548Z,41.93
2018-02-17T21:17:04.821Z,38.57
2018-02-17T21:19:32.345Z,40.17
2018-02-17T21:21:59.922Z,42.63
2018-02-17T21:24:27.510Z,40.73
2018-02-17T21:26:55.146Z,39.83
2018-02-17T21:29:22.663Z,47.60
2018-02-17T21:31:50.188Z,45.20
2018-02-17T21:34:18.536Z,40.53
2018-02-17T21:36:46.038Z,47.77
2018-02-17T21:39:14.338Z,47.07
2018-02-17T21:41:41.867Z,41.77
2018-02-17T21:44:09.406Z,48.10
2018-02-17T21:46:38.380Z,49.33
2018-02-17T21:49:05.907Z,49.77
2018-02-17T21:51:33.541Z,45.87
2018-02-17T21:54:03.026Z,48.23
2018-02-17T21:56:30.580Z,47.73
2018-02-17T21:58:58.200Z,49.93
2018-02-17T22:01:25.762Z,47.40
2018-02-17T22:03:53.534Z,49.47
2018-02-17T22:06:21.059Z,54.07
2018-02-17T22:08:49.387Z,49.87
2018-02-17T22:11:17.988Z,50.87
2018-02-17T22:13:45.492Z,51.70
2018-02-17T22:16:13.847Z,50.13
2018-02-17T22:18:41.373Z,50.20
2018-02-17T22:21:08.881Z,44.63
2018-02-17T22:23:37.211Z,47.73
2018-02-17T22:26:04.718Z,43.93
2018-02-17T22:28:32.212Z,43.50
2018-02-17T22:30:59.921Z,48.07
2018-02-17T22:33:27.412Z,57.50
2018-02-17T22:35:54.937Z,73.13
2018-02-17T22:38:22.422Z,73.43
2018-02-17T22:40:49.915Z,50.23
2018-02-17T22:43:17.443Z,49.13
2018-02-17T22:45:45.703Z,56.20
2018-02-17T22:48:14.705Z,49.03
2018-02-17T22:50:42.207Z,48.03
2018-02-17T22:53:09.715Z,50.70
2018-02-17T22:55:37.203Z,47.87
2018-02-17T22:58:05.461Z,45.37
2018-02-17T23:00:33.000Z,47.57
2018-02-17T23:03:00.499Z,46.20
2018-02-17T23:05:28.751Z,42.17
2018-02-17T23:07:57.686Z,40.07
2018-02-17T23:10:25.262Z,40.03
2018-02-17T23:12:55.142Z,42.17
2018-02-17T23:15:22.886Z,33.60
2018-02-17T23:17:50.382Z,40.93
2018-02-17T23:20:18.486Z,35.70
2018-02-17T23:22:47.961Z,37.73
2018-02-17T23:25:15.483Z,35.77
2018-02-17T23:27:42.989Z,34.70
2018-02-17T23:30:11.155Z,36.57
2018-02-17T23:32:38.638Z,35.90
2018-02-17T23:35:06.148Z,35.70
2018-02-17T23:37:37.668Z,36.17
2018-02-17T23:40:05.169Z,33.10
2018-02-17T23:42:32.681Z,34.53
2018-02-17T23:45:00.193Z,33.10
2018-02-17T23:47:28.484Z,32.77
2018-02-17T23:49:56.000Z,33.23
2018-02-17T23:52:23.556Z,28.90
2018-02-17T23:54:51.056Z,32.00
2018-02-17T23:57:19.329Z,31.33
2018-02-17T23:59:47.603Z,31.93
